createdAt,value
2023-05-14T00:00:53.016Z,2.00
2023-05-14T00:03:19.954Z,2.22
2023-05-14T00:05:46.799Z,2.03
2023-05-14T00:08:13.580Z,2.13
2023-05-14T00:10:40.388Z,2.17
2023-05-14T00:13:07.214Z,1.90
2023-05-14T00:15:34.570Z,1.95
2023-05-14T00:18:01.650Z,1.90
2023-05-14T00:20:28.574Z,1.98
2023-05-14T00:22:55.710Z,2.03
2023-05-14T00:25:22.518Z,1.90
2023-05-14T00:27:49.466Z,2.10
2023-05-14T00:30:16.309Z,1.88
2023-05-14T00:32:43.228Z,2.17
2023-05-14T00:35:10.226Z,1.98
2023-05-14T00:37:37.468Z,2.15
2023-05-14T00:40:06.834Z,1.90
2023-05-14T00:42:34.213Z,2.20
2023-05-14T00:45:01.007Z,2.45
2023-05-14T00:47:27.917Z,1.85
2023-05-14T00:49:54.875Z,2.40
2023-05-14T00:52:22.123Z,1.90
2023-05-14T00:54:49.508Z,2.00
2023-05-14T00:57:16.748Z,2.20
2023-05-14T00:59:43.729Z,1.80
2023-05-14T01:02:11.264Z,1.90
2023-05-14T01:04:38.959Z,2.03
2023-05-14T01:07:09.971Z,1.90
2023-05-14T01:09:55.842Z,1.90
2023-05-14T01:12:44.415Z,2.10
2023-05-14T01:15:16.459Z,2.08
2023-05-14T01:17:52.094Z,1.98
2023-05-14T01:20:19.393Z,1.88
2023-05-14T01:22:46.276Z,1.95
2023-05-14T01:25:13.279Z,2.22
2023-05-14T01:28:05.349Z,1.88
2023-05-14T01:30:36.902Z,2.00
2023-05-14T01:33:14.316Z,1.70
2023-05-14T01:35:42.675Z,1.80
2023-05-14T01:38:13.453Z,1.85
2023-05-14T01:40:41.530Z,1.70
2023-05-14T01:43:08.772Z,1.75
2023-05-14T01:45:37.433Z,1.80
2023-05-14T01:48:07.380Z,1.88
2023-05-14T01:50:34.632Z,2.00
2023-05-14T01:53:01.446Z,2.10
2023-05-14T01:55:28.357Z,2.10
2023-05-14T01:57:55.858Z,2.20
2023-05-14T02:00:25.992Z,2.40
2023-05-14T02:02:53.143Z,2.25
2023-05-14T02:05:20.135Z,2.10
2023-05-14T02:07:47.078Z,2.60
2023-05-14T02:10:14.717Z,2.30
2023-05-14T02:12:41.751Z,2.28
2023-05-14T02:15:10.938Z,2.20
2023-05-14T02:17:38.472Z,1.98
2023-05-14T02:20:05.933Z,2.05
2023-05-14T02:22:32.841Z,2.20
2023-05-14T02:24:59.798Z,2.40
2023-05-14T02:27:26.857Z,2.10
2023-05-14T02:29:53.753Z,2.13
2023-05-14T02:32:20.652Z,2.38
2023-05-14T02:34:47.776Z,2.30
2023-05-14T02:37:14.639Z,2.20
2023-05-14T02:39:41.581Z,2.60
2023-05-14T02:42:08.507Z,2.22
2023-05-14T02:44:35.523Z,2.60
2023-05-14T02:47:02.383Z,2.30
2023-05-14T02:49:29.244Z,2.20
2023-05-14T02:51:56.179Z,2.42
2023-05-14T02:54:23.032Z,2.40
2023-05-14T02:56:49.809Z,2.25
2023-05-14T02:59:16.652Z,2.55
2023-05-14T03:01:44.009Z,2.25
2023-05-14T03:04:11.457Z,2.53
2023-05-14T03:06:38.229Z,2.47
2023-05-14T03:09:05.402Z,2.22
2023-05-14T03:11:32.236Z,2.28
2023-05-14T03:13:59.021Z,2.40
2023-05-14T03:16:25.915Z,2.50
2023-05-14T03:18:52.771Z,2.50
2023-05-14T03:21:19.633Z,2.47
2023-05-14T03:23:46.406Z,2.28
2023-05-14T03:26:13.242Z,2.50
2023-05-14T03:28:40.833Z,2.70
2023-05-14T03:31:07.765Z,2.30
2023-05-14T03:33:34.646Z,2.80
2023-05-14T03:36:01.536Z,2.35
2023-05-14T03:38:28.331Z,2.70
2023-05-14T03:40:55.118Z,2.60
2023-05-14T03:43:21.916Z,2.55
2023-05-14T03:45:52.517Z,2.53
2023-05-14T03:48:20.542Z,2.60
2023-05-14T03:50:47.918Z,2.53
2023-05-14T03:53:14.784Z,2.85
2023-05-14T03:55:41.689Z,2.85
2023-05-14T03:58:14.232Z,2.80
2023-05-14T04:00:42.258Z,2.97
2023-05-14T04:03:11.267Z,2.95
2023-05-14T04:05:38.239Z,3.00
2023-05-14T04:08:05.853Z,3.10
2023-05-14T04:10:32.766Z,3.05
2023-05-14T04:13:00.495Z,2.78
2023-05-14T04:15:31.801Z,2.70
2023-05-14T04:17:58.711Z,2.75
2023-05-14T04:20:25.878Z,2.78
2023-05-14T04:22:53.722Z,2.83
2023-05-14T04:25:20.754Z,2.70
2023-05-14T04:27:47.569Z,2.90
2023-05-14T04:30:14.570Z,2.90
2023-05-14T04:32:41.510Z,2.90
2023-05-14T04:35:10.241Z,2.80
2023-05-14T04:37:37.297Z,3.00
2023-05-14T04:40:05.796Z,2.67
2023-05-14T04:42:33.652Z,2.80
2023-05-14T04:45:01.003Z,3.10
2023-05-14T04:47:27.849Z,3.00
2023-05-14T04:49:54.863Z,3.20
2023-05-14T04:52:21.750Z,3.17
2023-05-14T04:54:48.510Z,3.30
2023-05-14T04:57:15.540Z,3.22
2023-05-14T04:59:42.564Z,3.08
2023-05-14T05:02:09.445Z,3.40
2023-05-14T05:04:36.639Z,3.33
2023-05-14T05:07:03.529Z,3.47
2023-05-14T05:09:30.318Z,3.42
2023-05-14T05:11:57.214Z,3.55
2023-05-14T05:14:24.090Z,3.47
2023-05-14T05:16:51.582Z,3.70
2023-05-14T05:19:19.729Z,3.55
2023-05-14T05:21:49.221Z,3.50
2023-05-14T05:24:16.346Z,3.60
2023-05-14T05:26:43.211Z,3.63
2023-05-14T05:29:10.031Z,3.72
2023-05-14T05:31:37.019Z,3.55
2023-05-14T05:34:04.116Z,3.80
2023-05-14T05:36:31.649Z,3.47
2023-05-14T05:38:58.439Z,3.80
2023-05-14T05:41:26.659Z,3.45
2023-05-14T05:43:53.575Z,3.70
2023-05-14T05:46:20.414Z,3.35
2023-05-14T05:48:47.329Z,3.60
2023-05-14T05:51:14.190Z,3.47
2023-05-14T05:53:41.242Z,3.60
2023-05-14T05:56:08.180Z,3.47
2023-05-14T05:58:34.996Z,3.55
2023-05-14T06:01:02.419Z,3.33
2023-05-14T06:03:29.319Z,2.83
2023-05-14T06:05:56.172Z,3.05
2023-05-14T06:08:23.137Z,3.50
2023-05-14T06:10:50.034Z,3.25
2023-05-14T06:13:17.073Z,3.47
2023-05-14T06:15:43.871Z,3.13
2023-05-14T06:18:10.771Z,2.63
2023-05-14T06:20:37.819Z,3.17
2023-05-14T06:23:04.691Z,2.80
2023-05-14T06:25:31.495Z,3.05
2023-05-14T06:27:58.296Z,2.92
2023-05-14T06:30:25.469Z,2.63
2023-05-14T06:32:52.498Z,2.70
2023-05-14T06:35:19.470Z,2.50
2023-05-14T06:37:46.241Z,2.40
2023-05-14T06:40:15.686Z,2.50
2023-05-14T06:42:42.682Z,2.83
2023-05-14T06:45:09.798Z,2.63
2023-05-14T06:47:36.706Z,2.95
2023-05-14T06:50:03.815Z,2.83
2023-05-14T06:52:30.651Z,2.67
2023-05-14T06:54:57.468Z,2.60
2023-05-14T06:57:24.464Z,2.40
2023-05-14T06:59:51.303Z,2.83
2023-05-14T07:02:18.135Z,2.63
2023-05-14T07:04:44.992Z,2.30
2023-05-14T07:07:15.389Z,2.83
2023-05-14T07:09:42.753Z,2.67
2023-05-14T07:12:10.262Z,2.30
2023-05-14T07:14:37.428Z,2.58
2023-05-14T07:17:04.504Z,2.97
2023-05-14T07:19:31.362Z,2.78
2023-05-14T07:21:58.310Z,2.42
2023-05-14T07:24:25.264Z,2.80
2023-05-14T07:26:52.262Z,2.33
2023-05-14T07:29:19.089Z,2.60
2023-05-14T07:31:46.617Z,2.13
2023-05-14T07:34:13.575Z,2.75
2023-05-14T07:36:41.895Z,2.40
2023-05-14T07:39:09.028Z,2.38
2023-05-14T07:41:35.808Z,2.60
2023-05-14T07:44:02.670Z,2.85
2023-05-14T07:46:29.561Z,2.70
2023-05-14T07:48:56.398Z,2.50
2023-05-14T07:51:23.209Z,1.92
2023-05-14T07:53:49.991Z,2.60
2023-05-14T07:56:16.992Z,2.38
2023-05-14T07:58:44.163Z,2.50
2023-05-14T08:01:12.726Z,2.50
2023-05-14T08:03:39.666Z,2.80
2023-05-14T08:06:06.619Z,2.97
2023-05-14T08:08:33.685Z,2.90
2023-05-14T08:11:00.756Z,2.88
2023-05-14T08:13:27.627Z,2.92
2023-05-14T08:15:54.603Z,2.72
2023-05-14T08:18:21.426Z,3.25
2023-05-14T08:20:48.405Z,2.88
2023-05-14T08:23:15.355Z,2.50
2023-05-14T08:25:42.172Z,2.90
2023-05-14T08:28:09.035Z,2.40
2023-05-14T08:30:35.895Z,2.90
2023-05-14T08:33:03.643Z,2.47
2023-05-14T08:35:30.704Z,2.60
2023-05-14T08:37:57.551Z,2.92
2023-05-14T08:40:25.080Z,3.05
2023-05-14T08:42:52.916Z,2.60
2023-05-14T08:45:21.853Z,2.63
2023-05-14T08:47:50.838Z,2.47
2023-05-14T08:50:21.905Z,2.70
2023-05-14T08:52:50.085Z,2.13
2023-05-14T08:55:16.945Z,2.33
2023-05-14T08:57:43.793Z,2.60
2023-05-14T09:00:11.928Z,2.65
2023-05-14T09:02:40.585Z,2.70
2023-05-14T09:05:09.245Z,2.22
2023-05-14T09:07:36.608Z,2.15
2023-05-14T09:10:04.589Z,2.33
2023-05-14T09:12:31.557Z,2.50
2023-05-14T09:14:58.410Z,2.30
2023-05-14T09:17:27.544Z,2.47
2023-05-14T09:19:55.196Z,2.30
2023-05-14T09:22:22.425Z,2.58
2023-05-14T09:25:05.905Z,2.60
2023-05-14T09:27:34.022Z,2.10
2023-05-14T09:30:10.558Z,2.00
2023-05-14T09:32:44.234Z,2.47
2023-05-14T09:35:13.234Z,2.45
2023-05-14T09:37:43.391Z,2.50
2023-05-14T09:40:11.881Z,2.58
2023-05-14T09:42:38.871Z,2.40
2023-05-14T09:45:08.022Z,2.22
2023-05-14T09:47:35.088Z,1.90
2023-05-14T09:50:02.164Z,2.60
2023-05-14T09:52:29.307Z,2.17
2023-05-14T09:54:56.237Z,2.22
2023-05-14T09:57:23.304Z,2.72
2023-05-14T09:59:50.151Z,2.15
2023-05-14T10:02:36.833Z,2.10
2023-05-14T10:05:06.040Z,2.00
2023-05-14T10:07:57.372Z,2.20
2023-05-14T10:10:28.404Z,2.53
2023-05-14T10:13:00.249Z,2.10
2023-05-14T10:15:52.189Z,2.00
2023-05-14T10:18:21.947Z,2.03
2023-05-14T10:20:53.726Z,2.20
2023-05-14T10:23:20.577Z,2.15
2023-05-14T10:25:47.900Z,2.00
2023-05-14T10:28:14.856Z,2.10
2023-05-14T10:30:46.389Z,2.30
2023-05-14T10:33:16.473Z,2.08
2023-05-14T10:36:03.124Z,1.95
2023-05-14T10:38:35.372Z,1.92
2023-05-14T10:41:03.567Z,1.80
2023-05-14T10:43:31.325Z,1.95
2023-05-14T10:45:59.820Z,1.75
2023-05-14T10:48:27.050Z,2.10
2023-05-14T10:50:55.253Z,1.50
2023-05-14T10:53:34.695Z,2.10
2023-05-14T10:56:09.343Z,2.17
2023-05-14T10:58:38.201Z,1.90
2023-05-14T11:01:07.007Z,1.83
2023-05-14T11:03:46.639Z,2.00
2023-05-14T11:06:15.557Z,2.03
2023-05-14T11:08:42.979Z,1.90
2023-05-14T11:11:10.856Z,1.90
2023-05-14T11:13:38.427Z,1.67
2023-05-14T11:16:18.896Z,2.08
2023-05-14T11:18:54.907Z,1.80
2023-05-14T11:21:21.826Z,1.63
2023-05-14T11:23:48.766Z,1.80
2023-05-14T11:26:15.608Z,1.83
2023-05-14T11:28:42.502Z,1.90
2023-05-14T11:31:10.198Z,1.63
2023-05-14T11:33:36.992Z,1.80
2023-05-14T11:36:04.559Z,2.00
2023-05-14T11:38:31.305Z,1.98
2023-05-14T11:40:59.560Z,2.10
2023-05-14T11:43:29.794Z,1.70
2023-05-14T11:45:57.049Z,1.67
2023-05-14T11:48:24.633Z,1.63
2023-05-14T11:50:53.026Z,1.50
2023-05-14T11:53:30.895Z,1.58
2023-05-14T11:55:57.988Z,1.50
2023-05-14T11:58:25.701Z,1.50
2023-05-14T12:00:55.218Z,1.50
2023-05-14T12:03:30.330Z,1.70
2023-05-14T12:06:02.355Z,1.70
2023-05-14T12:08:31.361Z,1.80
2023-05-14T12:10:59.677Z,1.70
2023-05-14T12:13:28.634Z,1.65
2023-05-14T12:15:57.090Z,1.90
2023-05-14T12:18:28.954Z,1.80
2023-05-14T12:20:56.351Z,1.75
2023-05-14T12:23:30.981Z,1.80
2023-05-14T12:26:08.655Z,1.63
2023-05-14T12:28:39.027Z,1.90
2023-05-14T12:31:06.408Z,1.58
2023-05-14T12:33:33.334Z,1.77
2023-05-14T12:38:33.555Z,1.97
2023-05-14T12:41:00.426Z,1.60
2023-05-14T12:43:31.491Z,1.83
2023-05-14T12:45:58.374Z,1.90
2023-05-14T12:48:25.325Z,1.60
2023-05-14T12:50:52.128Z,1.80
2023-05-14T12:53:18.902Z,1.83
2023-05-14T12:55:45.936Z,1.40
2023-05-14T12:58:12.715Z,1.58
2023-05-14T13:00:39.717Z,1.63
2023-05-14T13:03:06.613Z,1.63
2023-05-14T13:05:33.466Z,1.60
2023-05-14T13:08:03.663Z,1.55
2023-05-14T13:10:30.512Z,1.38
2023-05-14T13:12:58.259Z,1.40
2023-05-14T13:15:25.228Z,1.63
2023-05-14T13:17:52.297Z,1.50
2023-05-14T13:20:19.304Z,1.40
2023-05-14T13:22:46.259Z,1.38
2023-05-14T13:25:13.180Z,1.60
2023-05-14T13:27:40.030Z,1.42
2023-05-14T13:30:07.417Z,1.40
2023-05-14T13:32:34.395Z,1.50
2023-05-14T13:35:01.333Z,1.55
2023-05-14T13:37:28.898Z,1.55
2023-05-14T13:39:55.828Z,1.48
2023-05-14T13:42:23.611Z,1.83
2023-05-14T13:44:50.845Z,1.40
2023-05-14T13:47:17.794Z,1.80
2023-05-14T13:49:44.622Z,1.50
2023-05-14T13:52:11.481Z,1.52
2023-05-14T13:54:38.275Z,1.40
2023-05-14T13:57:05.588Z,1.30
2023-05-14T13:59:32.397Z,1.42
2023-05-14T14:01:59.260Z,1.30
2023-05-14T14:04:29.024Z,1.48
2023-05-14T14:06:56.139Z,1.23
2023-05-14T14:09:23.037Z,1.42
2023-05-14T14:11:50.338Z,1.20
2023-05-14T14:14:18.362Z,1.50
2023-05-14T14:16:45.246Z,1.30
2023-05-14T14:19:12.198Z,1.23
2023-05-14T14:21:42.697Z,1.50
2023-05-14T14:24:09.597Z,1.65
2023-05-14T14:26:36.502Z,1.65
2023-05-14T14:29:03.679Z,1.45
2023-05-14T14:31:30.770Z,1.40
2023-05-14T14:33:57.618Z,1.27
2023-05-14T14:36:24.419Z,1.50
2023-05-14T14:38:51.217Z,1.90
2023-05-14T14:41:18.040Z,1.50
2023-05-14T14:43:44.886Z,1.40
2023-05-14T14:46:11.720Z,1.42
2023-05-14T14:48:38.710Z,1.80
2023-05-14T14:51:07.450Z,1.85
2023-05-14T14:53:35.760Z,1.52
2023-05-14T14:56:02.932Z,1.40
2023-05-14T14:58:30.968Z,1.20
2023-05-14T15:01:01.165Z,1.65
2023-05-14T15:03:28.964Z,1.23
2023-05-14T15:05:56.032Z,1.30
2023-05-14T15:08:27.435Z,1.58
2023-05-14T15:10:55.914Z,1.50
2023-05-14T15:13:22.960Z,1.20
2023-05-14T15:15:51.690Z,1.40
2023-05-14T15:18:18.568Z,1.70
2023-05-14T15:20:45.536Z,1.40
2023-05-14T15:23:12.805Z,1.40
2023-05-14T15:25:39.733Z,1.25
2023-05-14T15:28:09.933Z,1.45
2023-05-14T15:30:37.163Z,1.40
2023-05-14T15:33:04.132Z,1.38
2023-05-14T15:35:31.164Z,1.33
2023-05-14T15:37:58.097Z,1.40
2023-05-14T15:40:25.105Z,1.30
2023-05-14T15:42:52.037Z,1.30
2023-05-14T15:45:19.263Z,1.15
2023-05-14T15:47:46.278Z,1.40
2023-05-14T15:50:13.203Z,1.25
2023-05-14T15:52:40.231Z,1.20
2023-05-14T15:55:07.554Z,1.20
2023-05-14T15:57:34.769Z,1.30
2023-05-14T16:00:01.872Z,1.17
2023-05-14T16:02:33.311Z,1.38
2023-05-14T16:05:00.255Z,1.40
2023-05-14T16:07:27.212Z,1.33
2023-05-14T16:09:54.090Z,1.15
2023-05-14T16:12:20.872Z,1.10
2023-05-14T16:14:47.758Z,1.13
2023-05-14T16:17:14.588Z,1.30
2023-05-14T16:19:41.587Z,1.10
2023-05-14T16:22:08.448Z,1.20
2023-05-14T16:24:35.298Z,1.20
2023-05-14T16:27:02.151Z,0.90
2023-05-14T16:29:29.021Z,1.10
2023-05-14T16:31:55.945Z,1.10
2023-05-14T16:34:22.892Z,1.33
2023-05-14T16:36:49.774Z,1.15
2023-05-14T16:39:17.400Z,1.10
2023-05-14T16:41:44.190Z,1.10
2023-05-14T16:44:11.003Z,1.05
2023-05-14T16:46:38.346Z,1.05
2023-05-14T16:49:05.153Z,1.20
2023-05-14T16:51:31.974Z,1.30
2023-05-14T16:53:58.784Z,1.27
2023-05-14T16:56:26.538Z,1.17
2023-05-14T16:58:53.416Z,1.33
2023-05-14T17:01:20.283Z,1.30
2023-05-14T17:03:47.112Z,1.08
2023-05-14T17:06:13.992Z,0.93
2023-05-14T17:08:40.834Z,1.30
2023-05-14T17:11:07.651Z,1.27
2023-05-14T17:13:34.470Z,1.10
2023-05-14T17:16:01.800Z,0.98
2023-05-14T17:18:28.756Z,1.00
2023-05-14T17:20:55.657Z,1.02
2023-05-14T17:23:22.475Z,0.70
2023-05-14T17:25:49.561Z,1.00
2023-05-14T17:28:16.521Z,0.82
2023-05-14T17:30:43.770Z,0.82
2023-05-14T17:33:11.530Z,0.93
2023-05-14T17:35:38.661Z,0.90
2023-05-14T17:38:05.698Z,0.70
2023-05-14T17:40:33.447Z,0.65
2023-05-14T17:43:00.505Z,0.60
2023-05-14T17:45:27.938Z,0.70
2023-05-14T17:47:57.578Z,0.98
2023-05-14T17:50:24.407Z,0.90
2023-05-14T17:52:51.233Z,0.88
2023-05-14T17:55:19.188Z,0.85
2023-05-14T17:57:46.510Z,0.70
2023-05-14T18:00:13.722Z,0.80
2023-05-14T18:02:41.819Z,0.95
2023-05-14T18:05:09.044Z,0.90
2023-05-14T18:07:36.641Z,0.70
2023-05-14T18:10:04.085Z,0.73
2023-05-14T18:12:30.983Z,0.70
2023-05-14T18:14:58.096Z,0.68
2023-05-14T18:17:24.983Z,0.73
2023-05-14T18:19:51.989Z,0.80
2023-05-14T18:22:21.746Z,0.70
2023-05-14T18:24:48.739Z,0.70
2023-05-14T18:27:15.904Z,0.68
2023-05-14T18:29:43.455Z,0.70
2023-05-14T18:32:10.422Z,0.82
2023-05-14T18:34:37.325Z,0.90
2023-05-14T18:37:04.198Z,0.90
2023-05-14T18:39:31.046Z,0.80
2023-05-14T18:41:57.879Z,0.90
2023-05-14T18:44:24.752Z,1.23
2023-05-14T18:46:52.450Z,1.38
2023-05-14T18:49:19.250Z,1.00
2023-05-14T18:51:46.159Z,0.90
2023-05-14T18:54:12.937Z,1.00
2023-05-14T18:56:45.525Z,0.95
2023-05-14T18:59:14.532Z,0.63
2023-05-14T19:01:41.496Z,0.70
2023-05-14T19:04:08.554Z,0.80
2023-05-14T19:06:36.216Z,0.80
2023-05-14T19:09:04.293Z,0.90
2023-05-14T19:11:31.237Z,0.80
2023-05-14T19:13:58.143Z,0.88
2023-05-14T19:16:25.109Z,0.90
2023-05-14T19:18:52.336Z,0.90
2023-05-14T19:21:19.211Z,0.80
2023-05-14T19:23:46.195Z,0.80
2023-05-14T19:26:13.039Z,1.00
2023-05-14T19:28:39.973Z,0.93
2023-05-14T19:31:06.870Z,1.00
2023-05-14T19:33:34.298Z,1.08
2023-05-14T19:36:01.099Z,0.90
2023-05-14T19:38:28.108Z,0.90
2023-05-14T19:40:57.051Z,0.80
2023-05-14T19:43:25.909Z,0.80
2023-05-14T19:45:52.972Z,1.00
2023-05-14T19:48:19.828Z,0.90
2023-05-14T19:50:47.540Z,1.42
2023-05-14T19:53:14.685Z,1.13
2023-05-14T19:55:41.773Z,1.10
2023-05-14T19:58:08.793Z,0.80
2023-05-14T20:00:36.909Z,1.00
2023-05-14T20:03:06.457Z,0.90
2023-05-14T20:05:37.053Z,0.88
2023-05-14T20:08:07.505Z,0.90
2023-05-14T20:10:34.262Z,1.00
2023-05-14T20:13:01.041Z,1.00
2023-05-14T20:15:27.824Z,1.00
2023-05-14T20:17:54.924Z,0.90
2023-05-14T20:20:21.753Z,1.10
2023-05-14T20:22:48.544Z,0.93
2023-05-14T20:25:15.701Z,1.20
2023-05-14T20:27:42.502Z,1.02
2023-05-14T20:30:09.700Z,0.93
2023-05-14T20:32:36.856Z,1.30
2023-05-14T20:35:04.148Z,1.10
2023-05-14T20:37:35.192Z,1.00
2023-05-14T20:40:02.618Z,1.00
2023-05-14T20:42:29.473Z,0.98
2023-05-14T20:44:56.486Z,0.88
2023-05-14T20:47:26.557Z,1.00
2023-05-14T20:49:53.482Z,1.00
2023-05-14T20:52:20.488Z,0.90
2023-05-14T20:54:47.628Z,0.98
2023-05-14T20:57:16.028Z,0.93
2023-05-14T20:59:42.979Z,1.20
2023-05-14T21:02:10.103Z,1.00
2023-05-14T21:04:37.228Z,1.00
2023-05-14T21:07:05.301Z,0.98
2023-05-14T21:09:32.146Z,1.10
2023-05-14T21:11:59.088Z,0.90
2023-05-14T21:14:25.973Z,0.93
2023-05-14T21:16:52.922Z,1.00
2023-05-14T21:19:19.907Z,1.13
2023-05-14T21:21:47.418Z,1.20
2023-05-14T21:24:16.670Z,1.20
2023-05-14T21:26:43.677Z,1.00
2023-05-14T21:29:11.063Z,1.10
2023-05-14T21:31:37.926Z,1.13
2023-05-14T21:34:04.828Z,0.93
2023-05-14T21:36:31.900Z,1.42
2023-05-14T21:38:59.080Z,1.20
2023-05-14T21:41:25.907Z,1.20
2023-05-14T21:43:52.814Z,1.30
2023-05-14T21:46:19.713Z,1.02
2023-05-14T21:48:46.641Z,1.08
2023-05-14T21:51:13.612Z,1.20
2023-05-14T21:53:40.493Z,1.10
2023-05-14T21:56:08.268Z,0.85
2023-05-14T21:58:35.834Z,1.00
2023-05-14T22:01:02.808Z,1.10
2023-05-14T22:03:29.680Z,1.08
2023-05-14T22:05:57.243Z,1.02
2023-05-14T22:08:24.123Z,1.10
2023-05-14T22:10:51.010Z,1.17
2023-05-14T22:13:17.911Z,1.10
2023-05-14T22:15:45.108Z,1.30
2023-05-14T22:18:12.994Z,1.20
2023-05-14T22:20:40.196Z,1.17
2023-05-14T22:23:07.247Z,1.10
2023-05-14T22:25:34.332Z,1.08
2023-05-14T22:28:01.359Z,1.20
2023-05-14T22:30:28.158Z,1.40
2023-05-14T22:32:54.952Z,1.27
2023-05-14T22:35:22.010Z,1.38
2023-05-14T22:37:48.838Z,1.38
2023-05-14T22:40:15.683Z,1.25
2023-05-14T22:42:42.579Z,1.42
2023-05-14T22:45:09.796Z,1.20
2023-05-14T22:47:38.020Z,1.15
2023-05-14T22:50:11.166Z,1.27
2023-05-14T22:52:39.163Z,1.00
2023-05-14T22:55:06.878Z,0.90
2023-05-14T22:57:34.340Z,1.17
2023-05-14T23:00:01.202Z,1.30
2023-05-14T23:02:28.152Z,1.35
2023-05-14T23:04:55.018Z,1.42
2023-05-14T23:07:22.431Z,1.20
2023-05-14T23:09:49.295Z,1.50
2023-05-14T23:12:16.148Z,1.60
2023-05-14T23:14:43.029Z,1.33
2023-05-14T23:17:09.809Z,1.30
2023-05-14T23:19:36.927Z,1.38
2023-05-14T23:22:03.852Z,1.30
2023-05-14T23:24:30.656Z,1.27
2023-05-14T23:26:57.684Z,1.30
2023-05-14T23:29:24.515Z,1.40
2023-05-14T23:31:51.480Z,1.30
2023-05-14T23:34:18.513Z,1.27
2023-05-14T23:36:45.546Z,1.40
2023-05-14T23:39:12.441Z,1.40
2023-05-14T23:41:39.208Z,1.33
2023-05-14T23:44:06.186Z,1.30
2023-05-14T23:46:33.220Z,1.42
2023-05-14T23:49:00.861Z,1.30
2023-05-14T23:51:27.869Z,1.10
2023-05-14T23:53:58.309Z,1.25
2023-05-14T23:56:27.391Z,1.40
2023-05-14T23:58:54.601Z,1.50
